Home > Products > Valid Products > MTR

000
SAUS44 KMRX 301753
MTRGDP
METAR KGDP 301751Z AUTO 08017G24KT 10SM CLR 21/09 A3029 RMK AO2
SLP187 T02060094 10211 20106 50005





000
SAUS44 KMRX 301653
MTRGDP
METAR KGDP 301651Z AUTO 07017G26KT 10SM CLR 21/09 A3030 RMK AO2 PK
WND 08030/1601 SLP191 T02060094





000
SAUS44 KMRX 301653
MTRGDP
METAR KGDP 301651Z AUTO 07017G26KT 10SM CLR 21/09 A3030 RMK AO2 PK
WND 08030/1601 SLP191 T02060094





000
SAUS44 KMRX 301553
MTRGDP
METAR KGDP 301551Z AUTO 06023KT 10SM CLR 18/09 A3028 RMK AO2 PK WND
06031/1505 SLP187 T01830089 $





000
SAUS44 KMRX 301453
MTRGDP
METAR KGDP 301451Z AUTO 05028KT 10SM CLR 17/09 A3027 RMK AO2 PK WND
04037/1354 SLP183 T01720094 51020 $





000
SAUS44 KMRX 301453
MTRGDP
METAR KGDP 301451Z AUTO 05028KT 10SM CLR 17/09 A3027 RMK AO2 PK WND
04037/1354 SLP183 T01720094 51020 $





000
SAUS44 KMRX 301353
MTRGDP
METAR KGDP 301351Z AUTO 04034KT 9SM CLR 16/08 A3024 RMK AO2 PK WND
04037/1349 SLP173 T01560083 $





000
SAUS44 KMRX 301305
MTRGDP
SPECI KGDP 301303Z AUTO 05031KT 10SM SCT001 13/11 A3023 RMK AO2 PK
WND 05036/1303 T01280106 $





000
SAUS44 KMRX 301305
MTRGDP
SPECI KGDP 301303Z AUTO 05031KT 10SM SCT001 13/11 A3023 RMK AO2 PK
WND 05036/1303 T01280106 $





000
SAUS44 KMRX 301253
MTRGDP
METAR KGDP 301251Z AUTO 05030KT 3SM BR BKN001 11/11 A3024 RMK AO2 PK
WND 06040/1200 SLP177 T01110106 $





000
SAUS44 KMRX 301247
MTRGDP
SPECI KGDP 301245Z AUTO 05031KT 1 1/4SM BR OVC001 11/11 A3023 RMK
AO2 PK WND 06040/1200 VIS 1/2V4 $





000
SAUS44 KMRX 301234
MTRGDP
SPECI KGDP 301231Z AUTO 05029KT 1/4SM FG VV001 11/10 A3023 RMK AO2
PK WND 06040/1200 T01060100 $





000
SAUS44 KMRX 301234
MTRGDP
SPECI KGDP 301231Z AUTO 05029KT 1/4SM FG VV001 11/10 A3023 RMK AO2
PK WND 06040/1200 T01060100 $





000
SAUS44 KMRX 301223
MTRGDP
SPECI KGDP 301221Z AUTO 05030KT 1/4SM FG VV002 11/11 A3023 RMK AO2
PK WND 06040/1200 T01060106 $





000
SAUS44 KMRX 301211
MTRGDP
SPECI KGDP 301209Z AUTO 06032KT 3/4SM BR VV002 11/11 A3022 RMK AO2
PK WND 06040/1200 T01060106 $





000
SAUS44 KMRX 301211
MTRGDP
SPECI KGDP 301209Z AUTO 06032KT 3/4SM BR VV002 11/11 A3022 RMK AO2
PK WND 06040/1200 T01060106 $





000
SAUS44 KMRX 301205
MTRGDP
SPECI KGDP 301203Z AUTO 06029KT 2 1/2SM BR OVC002 11/10 A3023 RMK
AO2 PK WND 06040/1200 VIS 1V5 T01060100 $





000
SAUS44 KMRX 301205
MTRGDP
SPECI KGDP 301203Z AUTO 06029KT 2 1/2SM BR OVC002 11/10 A3023 RMK
AO2 PK WND 06040/1200 VIS 1V5 T01060100 $





000
SAUS44 KMRX 301153
MTRGDP
METAR KGDP 301151Z AUTO 06035KT 9SM OVC001 11/11 A3020 RMK AO2 PK
WND 05043/1138 RAB12E32 SLP161 P0000 60000 T01060106 10194 20106
53007 $





000
SAUS44 KMRX 301153
MTRGDP
METAR KGDP 301151Z AUTO 06035KT 9SM OVC001 11/11 A3020 RMK AO2 PK
WND 05043/1138 RAB12E32 SLP161 P0000 60000 T01060106 10194 20106
53007 $





000
SAUS44 KMRX 301144
MTRGDP
SPECI KGDP 301142Z AUTO 06036G41KT 4SM BR OVC001 11/11 A3020 RMK AO2
PK WND 05043/1138 RAB12E32 P0000 T01060106 $





000
SAUS44 KMRX 301144
MTRGDP
SPECI KGDP 301142Z AUTO 06036G41KT 4SM BR OVC001 11/11 A3020 RMK AO2
PK WND 05043/1138 RAB12E32 P0000 T01060106 $





000
SAUS44 KMRX 301140
MTRGDP
SPECI KGDP 301138Z AUTO 05039KT 1SM BR VV001 11/11 A3019 RMK AO2 PK
WND 05043/1138 RAB12E32 P0000 T01060106 $





000
SAUS44 KMRX 301140
MTRGDP
SPECI KGDP 301138Z AUTO 05039KT 1SM BR VV001 11/11 A3019 RMK AO2 PK
WND 05043/1138 RAB12E32 P0000 T01060106 $





000
SAUS44 KMRX 301125
MTRGDP
SPECI KGDP 301123Z AUTO 06034G42KT 1/4SM -RA FG VV001 11/11 A3019
RMK AO2 PK WND 05042/1116 RAB12 P0000 T01110111 $





000
SAUS44 KMRX 301116
MTRGDP
SPECI KGDP 301114Z AUTO 05038G42KT 1/4SM -RA FG BKN002 OVC017 12/11
A3017 RMK AO2 PK WND 06042/1109 RAB12 P0000 T01170111 $





000
SAUS44 KMRX 301116
MTRGDP
SPECI KGDP 301114Z AUTO 05038G42KT 1/4SM -RA FG BKN002 OVC017 12/11
A3017 RMK AO2 PK WND 06042/1109 RAB12 P0000 T01170111 $





000
SAUS44 KMRX 301110
MTRGDP
SPECI KGDP 301108Z AUTO 05035G40KT 1 1/2SM BR BKN003 OVC017 12/11
A3018 RMK AO2 PK WND 05040/1108 T01170111 $





000
SAUS44 KMRX 301110
MTRGDP
SPECI KGDP 301108Z AUTO 05035G40KT 1 1/2SM BR BKN003 OVC017 12/11
A3018 RMK AO2 PK WND 05040/1108 T01170111 $





000
SAUS44 KMRX 301105
MTRGDP
SPECI KGDP 301103Z AUTO 06032G40KT 8SM BKN003 OVC015 12/11 A3019 RMK
AO2 PK WND 05040/1053 T01170111 $





000
SAUS44 KMRX 301053
MTRGDP
METAR KGDP 301051Z AUTO 05037G48KT 10SM FEW003 BKN014 OVC019 12/11
A3017 RMK AO2 PK WND 06049/1038 RAB26E35 SLP150 P0000 T01220111 $





000
SAUS44 KMRX 301053
MTRGDP
METAR KGDP 301051Z AUTO 05037G48KT 10SM FEW003 BKN014 OVC019 12/11
A3017 RMK AO2 PK WND 06049/1038 RAB26E35 SLP150 P0000 T01220111 $





000
SAUS44 KMRX 301049
MTRGDP
SPECI KGDP 301047Z AUTO 06038G49KT 10SM FEW003 BKN014 OVC019 12/11
A3016 RMK AO2 PK WND 06049/1038 RAB26E35 P0000 $





000
SAUS44 KMRX 301033
MTRGDP
SPECI KGDP 301031Z AUTO 07040G45KT 4SM -RA BR BKN003 OVC010 14/12
A3015 RMK AO2 PK WND 07045/1030 RAB26 P0000 T01390122 $





000
SAUS44 KMRX 301033
MTRGDP
SPECI KGDP 301031Z AUTO 07040G45KT 4SM -RA BR BKN003 OVC010 14/12
A3015 RMK AO2 PK WND 07045/1030 RAB26 P0000 T01390122 $





000
SAUS44 KMRX 301028
MTRGDP
SPECI KGDP 301026Z AUTO 07035G42KT 1 1/4SM -RA BR OVC003 15/13 A3016
RMK AO2 PK WND 06042/1023 RAB26 P0000 T01500133 $





000
SAUS44 KMRX 300953
MTRGDP
METAR KGDP 300951Z AUTO 04025KT 6SM BR BKN003 BKN010 BKN022 16/16
A3018 RMK AO2 PK WND 04036/0902 SLP142 T01610156 $





000
SAUS44 KMRX 300949
MTRGDP
SPECI KGDP 300947Z AUTO 04027KT 6SM BR BKN003 BKN010 BKN022 16/16
A3017 RMK AO2 PK WND 04036/0902 CIG 002V006 $





000
SAUS44 KMRX 300936
MTRGDP
SPECI KGDP 300934Z AUTO 04031KT 7SM SCT005 BKN011 16/15 A3016 RMK
AO2 PK WND 04036/0902 T01610150 $





000
SAUS44 KMRX 300925
MTRGDP
SPECI KGDP 300923Z AUTO 04029KT 9SM SCT006 16/14 A3017 RMK AO2 PK
WND 04036/0902 T01560144 $





000
SAUS44 KMRX 300853
MTRGDP
METAR KGDP 300851Z AUTO 05029KT 10SM CLR 17/13 A3014 RMK AO2 PK WND
05032/0851 SLP125 T01720133 56001 $





000
SAUS44 KMRX 300853
MTRGDP
METAR KGDP 300851Z AUTO 05029KT 10SM CLR 17/13 A3014 RMK AO2 PK WND
05032/0851 SLP125 T01720133 56001 $





000
SAUS44 KMRX 300753
MTRGDP
METAR KGDP 300751Z AUTO 05024KT 10SM CLR 17/13 A3014 RMK AO2 PK WND
05030/0736 SLP125 T01720128 $





000
SAUS44 KMRX 300653
MTRGDP
METAR KGDP 300651Z AUTO 04025KT 10SM CLR 19/13 A3014 RMK AO2 PK WND
04028/0610 SLP125 T01940128 402890144 $





000
SAUS44 KMRX 300553
MTRGDP
METAR KGDP 300551Z AUTO 05023KT 10SM CLR 19/12 A3014 RMK AO2 PK WND
05028/0515 SLP130 T01890117 10256 20189 51012 $





000
SAUS44 KMRX 300553
MTRGDP
METAR KGDP 300551Z AUTO 05023KT 10SM CLR 19/12 A3014 RMK AO2 PK WND
05028/0515 SLP130 T01890117 10256 20189 51012 $





000
SAUS44 KMRX 300453
MTRGDP
METAR KGDP 300451Z AUTO 06023KT 10SM CLR 19/10 A3014 RMK AO2 PK WND
06027/0418 SLP132 T01940100 $





000
SAUS44 KMRX 300353
MTRGDP
METAR KGDP 300351Z AUTO 06018KT 10SM CLR 20/08 A3012 RMK AO2 SLP125
T02000083 $





000
SAUS44 KMRX 300253
MTRGDP
METAR KGDP 300251Z AUTO 06019KT 10SM CLR 21/09 A3010 RMK AO2 SLP116
T02110089 53007 $





000
SAUS44 KMRX 300153
MTRGDP
METAR KGDP 300151Z AUTO 08021KT 10SM CLR 23/08 A3009 RMK AO2 SLP111
T02330083





000
SAUS44 KMRX 300053
MTRGDP
METAR KGDP 300051Z AUTO 08019KT 10SM CLR 24/07 A3008 RMK AO2 SLP110
T02440067





000
SAUS44 KMRX 292353
MTRGDP
METAR KGDP 292351Z AUTO 06015KT 10SM CLR 26/07 A3008 RMK AO2 SLP110
T02560067 10289 20239 56010





000
SAUS44 KMRX 292353
MTRGDP
METAR KGDP 292351Z AUTO 06015KT 10SM CLR 26/07 A3008 RMK AO2 SLP110
T02560067 10289 20239 56010





000
SAUS44 KMRX 292253
MTRGDP
METAR KGDP 292251Z AUTO 06015KT 10SM CLR 26/07 A3008 RMK AO2 SLP107
T02560067





000
SAUS44 KMRX 292153
MTRGDP
METAR KGDP 292151Z AUTO 07012G24KT 10SM CLR 27/08 A3010 RMK AO2
SLP106 T02720078





000
SAUS44 KMRX 292145
MTRGDP
SPECI KGDP 292143Z AUTO 08017G25KT 10SM CLR 28/08 A3009 RMK AO2
T02780078





000
SAUS44 KMRX 292131
MTRGDP
SPECI KGDP 292129Z AUTO 07016G25KT 1 3/4SM HZ CLR 28/09 A3010 RMK
AO2 T02780089





000
SAUS44 KMRX 292053
MTRGDP
METAR KGDP 292051Z AUTO 09012KT 10SM FEW095 28/09 A3012 RMK AO2
SLP113 T02780094 58010





000
SAUS44 KMRX 291953
MTRGDP
METAR KGDP 291951Z AUTO 10SM CLR 28/09 A3013 RMK AO2 SLP117
T02780094





000
SAUS44 KMRX 291953
MTRGDP
METAR KGDP 291951Z AUTO 10SM CLR 28/09 A3013 RMK AO2 SLP117
T02780094





000
SAUS44 KMRX 291853
MTRGDP
METAR KGDP 291851Z AUTO 08011G15KT 10SM CLR 26/09 A3014 RMK AO2
SLP133 T02560094





000
SAUS44 KMRX 291753
MTRGDP
METAR KGDP 291751Z AUTO 08008KT 10SM CLR 24/10 A3015 RMK AO2 SLP140
T02390100 10239 20167 50007





000
SAUS44 KMRX 291753
MTRGDP
METAR KGDP 291751Z AUTO 08008KT 10SM CLR 24/10 A3015 RMK AO2 SLP140
T02390100 10239 20167 50007





000
SAUS44 KMRX 291655 COR
MTRGDP
METAR KGDP 291651Z AUTO 07014KT 10SM CLR 22/11 A3015 RMK AO2 SLP139
T02170111





000
SAUS44 KMRX 291655 COR
MTRGDP
METAR KGDP 291651Z AUTO 07014KT 10SM CLR 22/11 A3015 RMK AO2 SLP139
T02170111





000
SAUS44 KMRX 291654 COR
MTRGDP
METAR KGDP 291651Z AUTO 07014KT 10SM CLR 22/11 A3015 RMK AO2 SLP139
T02170111





000
SAUS44 KMRX 291653
MTRGDP
METAR KGDP 291651Z AUTO 07014KT 10SM CLR 22/11 A3015 RMK AO2 SLP139
T02170111





000
SAUS44 KMRX 291553
MTRGDP
METAR KGDP 291551Z AUTO 08018KT 10SM CLR 22/11 A3013 RMK AO2 SLP124
T02170106





000
SAUS44 KMRX 291453
MTRGDP
METAR KGDP 291451Z AUTO 00000KT 10SM CLR 22/01 A3013 RMK AO2 SLP126
T02170011 51015





000
SAUS44 KMRX 291353
MTRGDP
METAR KGDP 291351Z AUTO 17005KT 10SM CLR 19/00 A3011 RMK AO2 SLP115
T01940000





000
SAUS44 KMRX 291253
MTRGDP
METAR KGDP 291251Z AUTO 23007KT 10SM CLR 17/02 A3010 RMK AO2 SLP109
T01720017





000
SAUS44 KMRX 291253
MTRGDP
METAR KGDP 291251Z AUTO 23007KT 10SM CLR 17/02 A3010 RMK AO2 SLP109
T01720017





000
SAUS44 KMRX 291153
MTRGDP
METAR KGDP 291151Z AUTO 24013KT 10SM CLR 17/02 A3007 RMK AO2 SLP099
T01670017 10211 20144 53000





000
SAUS44 KMRX 291153
MTRGDP
METAR KGDP 291151Z AUTO 24013KT 10SM CLR 17/02 A3007 RMK AO2 SLP099
T01670017 10211 20144 53000





000
SAUS44 KMRX 291053
MTRGDP
METAR KGDP 291051Z AUTO 24010KT 10SM CLR 18/00 A3006 RMK AO2 SLP088
T01830000





000
SAUS44 KMRX 290953
MTRGDP
METAR KGDP 290951Z AUTO 22007KT 10SM CLR 20/00 A3006 RMK AO2 SLP091
T02000000





000
SAUS44 KMRX 290953
MTRGDP
METAR KGDP 290951Z AUTO 22007KT 10SM CLR 20/00 A3006 RMK AO2 SLP091
T02000000





000
SAUS44 KMRX 290853
MTRGDP
METAR KGDP 290851Z AUTO 07007KT 10SM CLR 19/M02 A3007 RMK AO2 SLP093
T01891022 58003





000
SAUS44 KMRX 290753
MTRGDP
METAR KGDP 290751Z AUTO 26011KT 10SM CLR 20/M02 A3007 RMK AO2 SLP089
T02001017





000
SAUS44 KMRX 290653
MTRGDP
METAR KGDP 290651Z AUTO 05009KT 10SM CLR 15/10 A3009 RMK AO2 PK WND
05027/0611 SLP111 T01500100 403220144





000
SAUS44 KMRX 290553
MTRGDP
METAR KGDP 290551Z AUTO 05024KT 10SM CLR 15/11 A3008 RMK AO2 PK WND
05030/0545 WSHFT 0445 SLP111 T01500111 10294 20150 53008





000
SAUS44 KMRX 290507
MTRGDP
SPECI KGDP 290505Z AUTO 05021KT 10SM CLR 16/11 A3009 RMK AO2 PK WND
06029/0452 WSHFT 0445 T01560111





000
SAUS44 KMRX 290507
MTRGDP
SPECI KGDP 290505Z AUTO 05021KT 10SM CLR 16/11 A3009 RMK AO2 PK WND
06029/0452 WSHFT 0445 T01560111





000
SAUS44 KMRX 290453
MTRGDP
METAR KGDP 290451Z AUTO 05026G31KT 10SM CLR 18/11 A3007 RMK AO2 PK
WND 05031/0451 SLP104 T01780106





000
SAUS44 KMRX 290453
MTRGDP
METAR KGDP 290451Z AUTO 05026G31KT 10SM CLR 18/11 A3007 RMK AO2 PK
WND 05031/0451 SLP104 T01780106





000
SAUS44 KMRX 290353
MTRGDP
METAR KGDP 290351Z AUTO 25007KT 10SM CLR 23/M06 A3006 RMK AO2 SLP100
T02281061





000
SAUS44 KMRX 290253
MTRGDP
METAR KGDP 290251Z AUTO 04012KT 10SM CLR 21/12 A3005 RMK AO2 WSHFT
0229 SLP105 T02060117 51021





000
SAUS44 KMRX 290251
MTRGDP
SPECI KGDP 290249Z AUTO 04014KT 10SM CLR 21/11 A3005 RMK AO2 WSHFT
0229





000
SAUS44 KMRX 290153
MTRGDP
METAR KGDP 290151Z AUTO 25017G23KT 10SM CLR 26/M09 A3002 RMK AO2 PK
WND 26029/0053 SLP084 T02561094





000
SAUS44 KMRX 290053
MTRGDP
METAR KGDP 290051Z AUTO 24022G30KT 10SM CLR 28/M09 A2998 RMK AO2 PK
WND 26035/2359 SLP069 T02781089





000
SAUS44 KMRX 282353
MTRGDP
METAR KGDP 282351Z AUTO 24021G33KT 10SM CLR 29/M08 A3000 RMK AO2 PK
WND 24034/2317 SLP071 T02941078 10322 20261 56018





000
SAUS44 KMRX 282253
MTRGDP
METAR KGDP 282251Z AUTO 25026G32KT 10SM CLR 31/M06 A3001 RMK AO2 PK
WND 24037/2223 SLP070 T03111061





000
SAUS44 KMRX 282253
MTRGDP
METAR KGDP 282251Z AUTO 25026G32KT 10SM CLR 31/M06 A3001 RMK AO2 PK
WND 24037/2223 SLP070 T03111061





000
SAUS44 KMRX 282153
MTRGDP
METAR KGDP 282151Z AUTO 23007G19KT 190V250 10SM BKN110 28/03 A3003
RMK AO2 PK WND 24026/2119 SLP087 T02830033





000
SAUS44 KMRX 282053
MTRGDP
METAR KGDP 282051Z AUTO 24013G23KT 10SM CLR 31/04 A3006 RMK AO2 PK
WND 26032/2005 SLP091 T03060044 56024





000
SAUS44 KMRX 281953
MTRGDP
METAR KGDP 281951Z AUTO 25021G27KT 10SM CLR 31/03 A3007 RMK AO2 PK
WND 25027/1951 SLP094 T03110033





000
SAUS44 KMRX 281853
MTRGDP
METAR KGDP 281851Z AUTO 23009G15KT 9SM CLR 28/12 A3012 RMK AO2
SLP115 T02780122





000
SAUS44 KMRX 281853
MTRGDP
METAR KGDP 281851Z AUTO 23009G15KT 9SM CLR 28/12 A3012 RMK AO2
SLP115 T02780122





000
SAUS44 KMRX 281753
MTRGDP
METAR KGDP 281751Z AUTO 23009G17KT 8SM CLR 27/13 A3014 RMK AO2
SLP125 T02720133 10278 20167 50005





000
SAUS44 KMRX 281753
MTRGDP
METAR KGDP 281751Z AUTO 23009G17KT 8SM CLR 27/13 A3014 RMK AO2
SLP125 T02720133 10278 20167 50005





000
SAUS44 KMRX 281653
MTRGDP
METAR KGDP 281651Z AUTO 23014KT 8SM CLR 26/14 A3014 RMK AO2 SLP127
T02560139





000
SAUS44 KMRX 281553
MTRGDP
METAR KGDP 281551Z AUTO 23018G23KT 7SM CLR 21/14 A3012 RMK AO2
SLP127 T02110139





000
SAUS44 KMRX 281453
MTRGDP
METAR KGDP 281451Z AUTO 24013KT 6SM HZ CLR 19/14 A3012 RMK AO2
SLP129 T01890139 50004





000
SAUS44 KMRX 281453
MTRGDP
METAR KGDP 281451Z AUTO 24013KT 6SM HZ CLR 19/14 A3012 RMK AO2
SLP129 T01890139 50004





000
SAUS44 KMRX 281353
MTRGDP
METAR KGDP 281351Z AUTO 25010KT 7SM CLR 18/13 A3013 RMK AO2 SLP130
T01830133





000
SAUS44 KMRX 281253
MTRGDP
METAR KGDP 281251Z AUTO 23010KT 7SM CLR 18/13 A3012 RMK AO2 SLP118
T01780128





000
SAUS44 KMRX 281253
MTRGDP
METAR KGDP 281251Z AUTO 23010KT 7SM CLR 18/13 A3012 RMK AO2 SLP118
T01780128





000
SAUS44 KMRX 281153
MTRGDP
METAR KGDP 281151Z AUTO 23010KT 8SM CLR 17/12 A3011 RMK AO2 SLP114
T01720122 10189 20161 53000





000
SAUS44 KMRX 281153
MTRGDP
METAR KGDP 281151Z AUTO 23010KT 8SM CLR 17/12 A3011 RMK AO2 SLP114
T01720122 10189 20161 53000





000
SAUS44 KMRX 281053
MTRGDP
METAR KGDP 281051Z AUTO 21007KT 9SM CLR 18/12 A3010 RMK AO2 SLP111
T01830117





000
SAUS44 KMRX 280953
MTRGDP
METAR KGDP 280951Z AUTO 07004KT 7SM CLR 17/13 A3011 RMK AO2 SLP113
T01720133





000
SAUS44 KMRX 280953
MTRGDP
METAR KGDP 280951Z AUTO 07004KT 7SM CLR 17/13 A3011 RMK AO2 SLP113
T01720133





000
SAUS44 KMRX 280853
MTRGDP
METAR KGDP 280851Z AUTO 05009KT 7SM CLR 17/13 A3011 RMK AO2 SLP111
T01670133 56001





000
SAUS44 KMRX 280753
MTRGDP
METAR KGDP 280751Z AUTO 04019KT 8SM CLR 17/12 A3011 RMK AO2 SLP108
T01720122





000
SAUS44 KMRX 280653
MTRGDP
METAR KGDP 280651Z AUTO 05021KT 9SM CLR 18/12 A3011 RMK AO2 PK WND
08035/0627 SLP109 T01830122 403170178





000
SAUS44 KMRX 280653
MTRGDP
METAR KGDP 280651Z AUTO 05021KT 9SM CLR 18/12 A3011 RMK AO2 PK WND
08035/0627 SLP109 T01830122 403170178





000
SAUS44 KMRX 280553
MTRGDP
METAR KGDP 280551Z AUTO 05025KT 8SM CLR 18/13 A3011 RMK AO2 PK WND
05032/0457 SLP112 T01780133 10278 20178 50003





000
SAUS44 KMRX 280453
MTRGDP
METAR KGDP 280451Z AUTO 06026KT 7SM CLR 18/14 A3012 RMK AO2 PK WND
06032/0357 SLP116 T01830144





000
SAUS44 KMRX 280453
MTRGDP
METAR KGDP 280451Z AUTO 06026KT 7SM CLR 18/14 A3012 RMK AO2 PK WND
06032/0357 SLP116 T01830144





000
SAUS44 KMRX 280353
MTRGDP
METAR KGDP 280351Z AUTO 06026G33KT 8SM CLR 19/14 A3011 RMK AO2 PK
WND 06033/0347 SLP117 T01940144





000
SAUS44 KMRX 280253
MTRGDP
METAR KGDP 280251Z AUTO 06024G31KT 9SM CLR 21/13 A3010 RMK AO2 PK
WND 07034/0232 SLP116 T02060133 53010





000
SAUS44 KMRX 280153
MTRGDP
METAR KGDP 280151Z AUTO 06022KT 9SM CLR 22/12 A3009 RMK AO2 PK WND
08034/0119 SLP110 T02170122





000
SAUS44 KMRX 280053
MTRGDP
METAR KGDP 280051Z AUTO 07010KT 10SM FEW110 26/05 A3007 RMK AO2
SLP098 T02610050





000
SAUS44 KMRX 280053
MTRGDP
METAR KGDP 280051Z AUTO 07010KT 10SM FEW110 26/05 A3007 RMK AO2
SLP098 T02610050





000
SAUS44 KMRX 272353
MTRGDP
METAR KGDP 272351Z AUTO 08014KT 10SM CLR 28/04 A3007 RMK AO2 SLP097
T02780044 10317 20267 56017





000
SAUS44 KMRX 272353
MTRGDP
METAR KGDP 272351Z AUTO 08014KT 10SM CLR 28/04 A3007 RMK AO2 SLP097
T02780044 10317 20267 56017





000
SAUS44 KMRX 272253
MTRGDP
METAR KGDP 272251Z AUTO 09016KT 10SM FEW120 27/05 A3008 RMK AO2
SLP100 T02720050





000
SAUS44 KMRX 272153
MTRGDP
METAR KGDP 272151Z AUTO 10SM CLR 28/02 A3010 RMK AO2 SLP107
T02830017





000
SAUS44 KMRX 272053
MTRGDP
METAR KGDP 272051Z AUTO 22013G24KT 200V280 10SM CLR 30/M03 A3013 RMK
AO2 SLP113 T03001028 58016





000
SAUS44 KMRX 271953
MTRGDP
METAR KGDP 271951Z AUTO 20012G18KT 10SM CLR 32/M01 A3015 RMK AO2
SLP118 T03171011





000
SAUS44 KMRX 271853
MTRGDP
METAR KGDP 271851Z AUTO 17007KT 100V210 10SM CLR 29/M01 A3017 RMK
AO2 SLP127 T02891006





000
SAUS44 KMRX 271853
MTRGDP
METAR KGDP 271851Z AUTO 17007KT 100V210 10SM CLR 29/M01 A3017 RMK
AO2 SLP127 T02891006





    US Dept of Commerce
    National Oceanic and Atmospheric Administration
    National Weather Service
    1325 East West Highway
    Silver Spring, MD 20910
    Page Author: NWS Internet Services Team
Disclaimer
Information Quality
Credits
Glossary
Privacy Policy
Freedom of Information Act (FOIA)
About Us
Career Opportunities